PWSweather.com
Personal Weather Stations
Station Observations
KJ4AJP
Beautiful Downtown Gardner, Martin, TN 38237

Beautiful Downtown GardnerMartin, TN 38237

Lat: 36.358, Lon: -88.8994

Elevation: 384.3

Station Type: TP1080WC

http://weather.mambm.com/

Latest ConditionsUpdated 7:45:00 PM CST Wednesday, Jan 16, 2019
Currently Today's Max Today's Min Today's Average
Temperature 43.7°F6.5°C 47.3°F8.5°C 28.0°F-2.2°C 37.1°F2.8°C
Dew Point 43.4°F6.3°C 45.8°F7.7°C 27.8°F-2.3°C 36.5°F2.5°C
Winds 1.6 mph E2.6 kmh E 4.5 mph -7.2 kmh - - 1.4 mph 2.3 kmh
Wind Gusts 2.2 mph3.5 kmh 9.8 mph15.8 kmh - -
Humidity 99% 99% 93% 98%
Pressure 30.22 in1023.4 mb 30.32 in1026.8 mb 30.21 in1023.0 mb -
Hour Temp Dew Point Humidity Winds Wind Gusts Pressure Precip Precip Rate Daily Precip Total
07:45 PM 43.7°F6.5°C 43.4°F6.3°C 99% 1.6 mph E2.6 kmh E 2.2 mph3.5 kmh 30.22 in1023.4 mb 0.00 in0.0 mm 0.00 in0.0 mm 0.00 in0.0 mm
07:30 PM 43.7°F6.5°C 43.4°F6.3°C 99% Calm Calm 2.2 mph3.5 kmh 30.21 in1023.0 mb 0.00 in0.0 mm 0.00 in0.0 mm 0.00 in0.0 mm
07:15 PM 43.9°F6.6°C 43.6°F6.4°C 99% Calm Calm -- 30.23 in1023.7 mb 0.00 in0.0 mm 0.00 in0.0 mm 0.00 in0.0 mm
07:00 PM 44.1°F6.7°C 43.5°F6.4°C 98% Calm Calm -- 30.23 in1023.7 mb 0.00 in0.0 mm 0.00 in0.0 mm 0.00 in0.0 mm
06:45 PM 44.1°F6.7°C 43.5°F6.4°C 98% Calm Calm -- 30.23 in1023.7 mb 0.00 in0.0 mm 0.00 in0.0 mm 0.00 in0.0 mm
06:30 PM 44.2°F6.8°C 43.7°F6.5°C 98% Calm Calm 1.6 mph2.6 kmh 30.23 in1023.7 mb 0.00 in0.0 mm 0.00 in0.0 mm 0.00 in0.0 mm
06:15 PM 44.6°F7.0°C 43.8°F6.6°C 97% Calm Calm 1.6 mph2.6 kmh 30.23 in1023.7 mb 0.00 in0.0 mm 0.00 in0.0 mm 0.00 in0.0 mm
06:00 PM 44.8°F7.1°C 44.0°F6.7°C 97% 0.7 mph SE1.1 kmh SE 1.6 mph2.6 kmh 30.23 in1023.7 mb 0.00 in0.0 mm 0.00 in0.0 mm 0.00 in0.0 mm
05:45 PM 45.1°F7.3°C 44.1°F6.7°C 96% 1.6 mph ESE2.6 kmh ESE 2.2 mph3.5 kmh 30.22 in1023.4 mb 0.00 in0.0 mm 0.00 in0.0 mm 0.00 in0.0 mm
05:30 PM 45.5°F7.5°C 44.4°F6.9°C 96% Calm Calm -- 30.23 in1023.7 mb 0.00 in0.0 mm 0.00 in0.0 mm 0.00 in0.0 mm
05:15 PM 46.0°F7.8°C 44.7°F7.1°C 95% 0.7 mph SSW1.1 kmh SSW 1.6 mph2.6 kmh 30.23 in1023.7 mb 0.00 in0.0 mm 0.00 in0.0 mm 0.00 in0.0 mm
05:00 PM 46.4°F8.0°C 44.8°F7.1°C 94% Calm Calm 0.7 mph1.1 kmh 30.23 in1023.7 mb 0.00 in0.0 mm 0.00 in0.0 mm 0.00 in0.0 mm
04:45 PM 46.6°F8.1°C 44.7°F7.1°C 93% Calm Calm 1.6 mph2.6 kmh 30.23 in1023.7 mb 0.00 in0.0 mm 0.00 in0.0 mm 0.00 in0.0 mm
04:30 PM 46.8°F8.2°C 44.8°F7.1°C 93% 0.7 mph S1.1 kmh S 2.2 mph3.5 kmh 30.23 in1023.7 mb 0.00 in0.0 mm 0.00 in0.0 mm 0.00 in0.0 mm
04:15 PM 46.9°F8.3°C 45.0°F7.2°C 93% 2.2 mph SE3.5 kmh SE 4.5 mph7.2 kmh 30.22 in1023.4 mb 0.00 in0.0 mm 0.00 in0.0 mm 0.00 in0.0 mm
04:00 PM 46.9°F8.3°C 45.0°F7.2°C 93% 1.6 mph S2.6 kmh S 4.5 mph7.2 kmh 30.22 in1023.4 mb 0.00 in0.0 mm 0.00 in0.0 mm 0.00 in0.0 mm
03:45 PM 46.9°F8.3°C 45.0°F7.2°C 93% 1.6 mph SE2.6 kmh SE 7.6 mph12.2 kmh 30.21 in1023.0 mb 0.00 in0.0 mm 0.00 in0.0 mm 0.00 in0.0 mm
03:30 PM 47.3°F8.5°C 45.4°F7.4°C 93% 1.6 mph SE2.6 kmh SE 9.8 mph15.8 kmh 30.21 in1023.0 mb 0.00 in0.0 mm 0.00 in0.0 mm 0.00 in0.0 mm
03:15 PM 47.1°F8.4°C 45.8°F7.7°C 95% 3.1 mph SSE5.0 kmh SSE 6.9 mph11.1 kmh 30.21 in1023.0 mb 0.00 in0.0 mm 0.00 in0.0 mm 0.00 in0.0 mm
03:00 PM 46.4°F8.0°C 45.0°F7.2°C 95% 2.2 mph S3.5 kmh S 6.0 mph9.7 kmh 30.22 in1023.4 mb 0.00 in0.0 mm 0.00 in0.0 mm 0.00 in0.0 mm
02:45 PM 46.4°F8.0°C 45.0°F7.2°C 95% 3.1 mph SSE5.0 kmh SSE 6.9 mph11.1 kmh 30.23 in1023.7 mb 0.00 in0.0 mm 0.00 in0.0 mm 0.00 in0.0 mm
02:30 PM 45.9°F7.7°C 44.5°F6.9°C 95% 1.6 mph SE2.6 kmh SE 6.0 mph9.7 kmh 30.23 in1023.7 mb 0.00 in0.0 mm 0.00 in0.0 mm 0.00 in0.0 mm
02:15 PM 45.7°F7.6°C 44.6°F7.0°C 96% 2.2 mph S3.5 kmh S 3.8 mph6.1 kmh 30.25 in1024.4 mb 0.00 in0.0 mm 0.00 in0.0 mm 0.00 in0.0 mm
02:00 PM 45.3°F7.4°C 44.5°F6.9°C 97% 2.2 mph S3.5 kmh S 3.8 mph6.1 kmh 30.25 in1024.4 mb 0.00 in0.0 mm 0.00 in0.0 mm 0.00 in0.0 mm
01:45 PM 45.1°F7.3°C 44.3°F6.8°C 97% 2.2 mph SSW3.5 kmh SSW 4.5 mph7.2 kmh 30.25 in1024.4 mb 0.00 in0.0 mm 0.00 in0.0 mm 0.00 in0.0 mm
01:30 PM 45.1°F7.3°C 44.6°F7.0°C 98% 0.7 mph SE1.1 kmh SE 5.4 mph8.7 kmh 30.25 in1024.4 mb 0.00 in0.0 mm 0.00 in0.0 mm 0.00 in0.0 mm
01:15 PM 44.6°F7.0°C 44.3°F6.8°C 99% 1.6 mph S2.6 kmh S 6.0 mph9.7 kmh 30.26 in1024.7 mb 0.00 in0.0 mm 0.00 in0.0 mm 0.00 in0.0 mm
01:00 PM 43.7°F6.5°C 43.4°F6.3°C 99% 3.8 mph SSW6.1 kmh SSW 6.0 mph9.7 kmh 30.27 in1025.1 mb 0.00 in0.0 mm 0.00 in0.0 mm 0.00 in0.0 mm
12:45 PM 42.6°F5.9°C 42.4°F5.8°C 99% 1.6 mph S2.6 kmh S 4.5 mph7.2 kmh 30.27 in1025.1 mb 0.00 in0.0 mm 0.00 in0.0 mm 0.00 in0.0 mm
12:30 PM 42.3°F5.7°C 42.0°F5.6°C 99% 0.7 mph S1.1 kmh S 3.1 mph5.0 kmh 30.27 in1025.1 mb 0.00 in0.0 mm 0.00 in0.0 mm 0.00 in0.0 mm
12:15 PM 42.3°F5.7°C 42.0°F5.6°C 99% 0.7 mph SW1.1 kmh SW 3.8 mph6.1 kmh 30.28 in1025.4 mb 0.00 in0.0 mm 0.00 in0.0 mm 0.00 in0.0 mm
12:00 PM 41.9°F5.5°C 41.6°F5.3°C 99% 0.7 mph W1.1 kmh W 3.8 mph6.1 kmh 30.29 in1025.7 mb 0.00 in0.0 mm 0.00 in0.0 mm 0.00 in0.0 mm
11:45 AM 41.5°F5.3°C 41.3°F5.2°C 99% 1.6 mph WSW2.6 kmh WSW 3.8 mph6.1 kmh 30.30 in1026.1 mb 0.00 in0.0 mm 0.00 in0.0 mm 0.00 in0.0 mm
11:30 AM 41.0°F5.0°C 40.7°F4.8°C 99% 0.7 mph WSW1.1 kmh WSW 5.4 mph8.7 kmh 30.30 in1026.1 mb 0.00 in0.0 mm 0.00 in0.0 mm 0.00 in0.0 mm
11:15 AM 40.6°F4.8°C 40.4°F4.7°C 99% 0.7 mph WSW1.1 kmh WSW 6.0 mph9.7 kmh 30.31 in1026.4 mb 0.00 in0.0 mm 0.00 in0.0 mm 0.00 in0.0 mm
11:00 AM 39.9°F4.4°C 39.7°F4.3°C 99% 3.8 mph SW6.1 kmh SW 6.0 mph9.7 kmh 30.32 in1026.8 mb 0.00 in0.0 mm 0.00 in0.0 mm 0.00 in0.0 mm
10:45 AM 39.4°F4.1°C 39.1°F3.9°C 99% 2.2 mph SSW3.5 kmh SSW 6.0 mph9.7 kmh 30.32 in1026.8 mb 0.00 in0.0 mm 0.00 in0.0 mm 0.00 in0.0 mm
10:30 AM 38.8°F3.8°C 38.6°F3.7°C 99% 3.1 mph SW5.0 kmh SW 6.0 mph9.7 kmh 30.32 in1026.8 mb 0.00 in0.0 mm 0.00 in0.0 mm 0.00 in0.0 mm
10:15 AM 38.5°F3.6°C 38.2°F3.4°C 99% 3.1 mph SW5.0 kmh SW 5.4 mph8.7 kmh 30.32 in1026.8 mb 0.00 in0.0 mm 0.00 in0.0 mm 0.00 in0.0 mm
10:00 AM 37.9°F3.3°C 37.7°F3.2°C 99% 3.1 mph S5.0 kmh S 6.0 mph9.7 kmh 30.32 in1026.8 mb 0.00 in0.0 mm 0.00 in0.0 mm 0.00 in0.0 mm
09:45 AM 37.4°F3.0°C 37.1°F2.8°C 99% 3.1 mph SW5.0 kmh SW 6.9 mph11.1 kmh 30.32 in1026.8 mb 0.00 in0.0 mm 0.00 in0.0 mm 0.00 in0.0 mm
09:30 AM 36.7°F2.6°C 36.4°F2.4°C 99% 2.2 mph SSW3.5 kmh SSW 6.0 mph9.7 kmh 30.32 in1026.8 mb 0.00 in0.0 mm 0.00 in0.0 mm 0.00 in0.0 mm
09:15 AM 36.0°F2.2°C 35.7°F2.1°C 99% 3.1 mph S5.0 kmh S 7.6 mph12.2 kmh 30.32 in1026.8 mb 0.00 in0.0 mm 0.00 in0.0 mm 0.00 in0.0 mm
09:00 AM 34.9°F1.6°C 34.6°F1.4°C 99% 3.8 mph S6.1 kmh S 8.3 mph13.4 kmh 30.31 in1026.4 mb 0.00 in0.0 mm 0.00 in0.0 mm 0.00 in0.0 mm
08:45 AM 34.2°F1.2°C 33.9°F1.1°C 99% 4.5 mph S7.2 kmh S 6.9 mph11.1 kmh 30.30 in1026.1 mb 0.00 in0.0 mm 0.00 in0.0 mm 0.00 in0.0 mm
08:30 AM 33.1°F0.6°C 32.8°F0.4°C 99% 3.8 mph S6.1 kmh S 6.9 mph11.1 kmh 30.30 in1026.1 mb 0.00 in0.0 mm 0.00 in0.0 mm 0.00 in0.0 mm
08:15 AM 31.6°F-0.2°C 31.4°F-0.3°C 99% 1.6 mph SE2.6 kmh SE 3.8 mph6.1 kmh 30.29 in1025.7 mb 0.00 in0.0 mm 0.00 in0.0 mm 0.00 in0.0 mm
08:00 AM 30.9°F-0.6°C 30.7°F-0.7°C 99% 1.6 mph SE2.6 kmh SE 3.8 mph6.1 kmh 30.29 in1025.7 mb 0.00 in0.0 mm 0.00 in0.0 mm 0.00 in0.0 mm
07:45 AM 30.6°F-0.8°C 30.3°F-0.9°C 99% 0.7 mph SSE1.1 kmh SSE 4.5 mph7.2 kmh 30.29 in1025.7 mb 0.00 in0.0 mm 0.00 in0.0 mm 0.00 in0.0 mm
07:30 AM 30.0°F-1.1°C 29.8°F-1.2°C 99% 1.6 mph SSE2.6 kmh SSE 3.1 mph5.0 kmh 30.29 in1025.7 mb 0.00 in0.0 mm 0.00 in0.0 mm 0.00 in0.0 mm
07:15 AM 29.5°F-1.4°C 29.2°F-1.6°C 99% 0.7 mph SE1.1 kmh SE 2.2 mph3.5 kmh 30.29 in1025.7 mb 0.00 in0.0 mm 0.00 in0.0 mm 0.00 in0.0 mm
07:00 AM 29.1°F-1.6°C 28.9°F-1.7°C 99% 1.6 mph SSE2.6 kmh SSE 2.2 mph3.5 kmh 30.28 in1025.4 mb 0.00 in0.0 mm 0.00 in0.0 mm 0.00 in0.0 mm
06:45 AM 28.9°F-1.7°C 28.7°F-1.8°C 99% 0.7 mph SE1.1 kmh SE 2.2 mph3.5 kmh 30.28 in1025.4 mb 0.00 in0.0 mm 0.00 in0.0 mm 0.00 in0.0 mm
06:30 AM 28.9°F-1.7°C 28.7°F-1.8°C 99% 0.7 mph SE1.1 kmh SE 2.2 mph3.5 kmh 30.28 in1025.4 mb 0.00 in0.0 mm 0.00 in0.0 mm 0.00 in0.0 mm
06:15 AM 28.9°F-1.7°C 28.7°F-1.8°C 99% 0.7 mph SE1.1 kmh SE 2.2 mph3.5 kmh 30.28 in1025.4 mb 0.00 in0.0 mm 0.00 in0.0 mm 0.00 in0.0 mm
06:00 AM 29.3°F-1.5°C 29.1°F-1.6°C 99% 0.7 mph SE1.1 kmh SE 3.1 mph5.0 kmh 30.28 in1025.4 mb 0.00 in0.0 mm 0.00 in0.0 mm 0.00 in0.0 mm
05:45 AM 29.7°F-1.3°C 29.4°F-1.4°C 99% 1.6 mph SE2.6 kmh SE 2.2 mph3.5 kmh 30.27 in1025.1 mb 0.00 in0.0 mm 0.00 in0.0 mm 0.00 in0.0 mm
05:30 AM 29.5°F-1.4°C 29.2°F-1.6°C 99% 1.6 mph SE2.6 kmh SE 3.1 mph5.0 kmh 30.27 in1025.1 mb 0.00 in0.0 mm 0.00 in0.0 mm 0.00 in0.0 mm
05:15 AM 29.1°F-1.6°C 28.9°F-1.7°C 99% 0.7 mph SE1.1 kmh SE 2.2 mph3.5 kmh 30.27 in1025.1 mb 0.00 in0.0 mm 0.00 in0.0 mm 0.00 in0.0 mm
05:00 AM 28.8°F-1.8°C 28.5°F-1.9°C 99% 0.7 mph SE1.1 kmh SE 2.2 mph3.5 kmh 30.27 in1025.1 mb 0.00 in0.0 mm 0.00 in0.0 mm 0.00 in0.0 mm
04:45 AM 28.4°F-2.0°C 28.2°F-2.1°C 99% 0.7 mph SE1.1 kmh SE 3.1 mph5.0 kmh 30.26 in1024.7 mb 0.00 in0.0 mm 0.00 in0.0 mm 0.00 in0.0 mm
04:30 AM 28.2°F-2.1°C 28.0°F-2.2°C 99% 1.6 mph SSE2.6 kmh SSE 3.1 mph5.0 kmh 30.27 in1025.1 mb 0.00 in0.0 mm 0.00 in0.0 mm 0.00 in0.0 mm
04:15 AM 28.0°F-2.2°C 27.8°F-2.3°C 99% 0.7 mph SSE1.1 kmh SSE 3.1 mph5.0 kmh 30.26 in1024.7 mb 0.00 in0.0 mm 0.00 in0.0 mm 0.00 in0.0 mm
04:00 AM 28.0°F-2.2°C 27.8°F-2.3°C 99% 1.6 mph SE2.6 kmh SE 3.1 mph5.0 kmh 30.26 in1024.7 mb 0.00 in0.0 mm 0.00 in0.0 mm 0.00 in0.0 mm
03:45 AM 28.0°F-2.2°C 27.8°F-2.3°C 99% 0.7 mph S1.1 kmh S 3.8 mph6.1 kmh 30.27 in1025.1 mb 0.00 in0.0 mm 0.00 in0.0 mm 0.00 in0.0 mm
03:30 AM 28.2°F-2.1°C 28.0°F-2.2°C 99% 1.6 mph SSE2.6 kmh SSE 3.8 mph6.1 kmh 30.27 in1025.1 mb 0.00 in0.0 mm 0.00 in0.0 mm 0.00 in0.0 mm
03:15 AM 28.4°F-2.0°C 28.2°F-2.1°C 99% 0.7 mph S1.1 kmh S 3.8 mph6.1 kmh 30.26 in1024.7 mb 0.00 in0.0 mm 0.00 in0.0 mm 0.00 in0.0 mm
03:00 AM 28.4°F-2.0°C 28.2°F-2.1°C 99% 2.2 mph S3.5 kmh S 3.8 mph6.1 kmh 30.27 in1025.1 mb 0.00 in0.0 mm 0.00 in0.0 mm 0.00 in0.0 mm
02:45 AM 28.6°F-1.9°C 28.3°F-2.1°C 99% 0.7 mph SSE1.1 kmh SSE 2.2 mph3.5 kmh 30.28 in1025.4 mb 0.00 in0.0 mm 0.00 in0.0 mm 0.00 in0.0 mm
02:30 AM 28.6°F-1.9°C 28.3°F-2.1°C 99% 1.6 mph S2.6 kmh S 3.1 mph5.0 kmh 30.28 in1025.4 mb 0.00 in0.0 mm 0.00 in0.0 mm 0.00 in0.0 mm
02:15 AM 28.6°F-1.9°C 28.3°F-2.1°C 99% 0.7 mph SE1.1 kmh SE 2.2 mph3.5 kmh 30.27 in1025.1 mb 0.00 in0.0 mm 0.00 in0.0 mm 0.00 in0.0 mm
02:00 AM 28.9°F-1.7°C 28.7°F-1.8°C 99% 0.7 mph SE1.1 kmh SE 2.2 mph3.5 kmh 30.27 in1025.1 mb 0.00 in0.0 mm 0.00 in0.0 mm 0.00 in0.0 mm
01:45 AM 29.3°F-1.5°C 29.1°F-1.6°C 99% 0.7 mph SE1.1 kmh SE 2.2 mph3.5 kmh 30.27 in1025.1 mb 0.00 in0.0 mm 0.00 in0.0 mm 0.00 in0.0 mm
01:30 AM 29.7°F-1.3°C 29.4°F-1.4°C 99% 1.6 mph S2.6 kmh S 3.1 mph5.0 kmh 30.27 in1025.1 mb 0.00 in0.0 mm 0.00 in0.0 mm 0.00 in0.0 mm
01:15 AM 29.8°F-1.2°C 29.6°F-1.3°C 99% 1.6 mph S2.6 kmh S 3.1 mph5.0 kmh 30.27 in1025.1 mb 0.00 in0.0 mm 0.00 in0.0 mm 0.00 in0.0 mm
01:00 AM 29.7°F-1.3°C 29.4°F-1.4°C 99% 0.7 mph S1.1 kmh S 2.2 mph3.5 kmh 30.27 in1025.1 mb 0.00 in0.0 mm 0.00 in0.0 mm 0.00 in0.0 mm
12:45 AM 29.7°F-1.3°C 29.4°F-1.4°C 99% 0.7 mph S1.1 kmh S 2.2 mph3.5 kmh 30.26 in1024.7 mb 0.00 in0.0 mm 0.00 in0.0 mm 0.00 in0.0 mm
12:30 AM 29.8°F-1.2°C 29.6°F-1.3°C 99% 1.6 mph S2.6 kmh S 3.1 mph5.0 kmh 30.26 in1024.7 mb 0.00 in0.0 mm 0.00 in0.0 mm 0.00 in0.0 mm
12:15 AM 30.2°F-1.0°C 30.0°F-1.1°C 99% 0.7 mph S1.1 kmh S 3.1 mph5.0 kmh 30.27 in1025.1 mb 0.00 in0.0 mm 0.00 in0.0 mm 0.00 in0.0 mm
12:00 AM 30.4°F-0.9°C 30.1°F-1.1°C 99% 1.6 mph S2.6 kmh S 2.2 mph3.5 kmh 30.27 in1025.1 mb 0.00 in0.0 mm 0.00 in0.0 mm 0.00 in0.0 mm